Flight Track Log - Related Links

Times and Time Zones

All times are in EDT time to prevent confusion due to time zone crossing. See the GJS3649 flight status page for this flight to view local times or setup timezone preferences in your user account.

Time Position Orientation Groundspeed Altitude Reporting Facility
EDT Latitude Longitude Course Direction KTS MPH feet Rate Location/Type
Thu 07:10:53 AM 36.1844 -95.8828 39° Northeast 158 182 1,100  Level Kansas City Center
Thu 07:12:05 AM 36.1258 -95.8619 164° South 201 231 3,600 1,899 Climbing Kansas City Center
Thu 07:13:12 AM 36.1272 -95.7792 89° East 268 308 5,500 2,063 Climbing Kansas City Center
Thu 07:14:00 AM 36.3398 -95.4558 61° Northeast  Level FlightAware Approximate
Thu 07:14:13 AM 36.1728 -95.7006 54° Northeast 296 341 8,000  Level Kansas City Center
Thu 07:15:00 AM 36.3876 -95.3508 60° Northeast  Level FlightAware Approximate
Thu 07:15:17 AM 36.2147 -95.6219 57° Northeast 285 328 10,300  Level Kansas City Center
Thu 07:16:00 AM 36.4365 -95.2468 39° Northeast  Level FlightAware Approximate
Thu 07:16:18 AM 36.2619 -95.5322 57° Northeast 304 350 11,900  Level Kansas City Center
Thu 07:17:19 AM 36.3275 -95.4122 56° Northeast 351 404 13,700 1,488 Climbing Kansas City Center
Thu 07:18:19 AM 36.3839 -95.3044 57° Northeast 380 437 14,900 1,388 Climbing Kansas City Center
Thu 07:19:20 AM 36.4408 -95.1992 56° Northeast 395 455 16,500 1,525 Climbing Kansas City Center
Thu 07:20:21 AM 36.5067 -95.0756 56° Northeast 402 463 18,000 1,426 Climbing Kansas City Center
Thu 07:21:22 AM 36.5700 -94.9553 57° Northeast 412 474 19,400 1,033 Climbing Kansas City Center
Thu 07:22:23 AM 36.6353 -94.8294 57° Northeast 425 489 20,100 843 Climbing Kansas City Center
Thu 07:23:23 AM 36.7044 -94.7008 56° Northeast 439 505 21,100 992 Climbing Kansas City Center
Thu 07:24:24 AM 36.7714 -94.5706 57° Northeast 444 511 22,100 934 Climbing Kansas City Center
Thu 07:25:25 AM 36.8414 -94.4394 56° Northeast 451 519 23,000 836 Climbing Kansas City Center
Thu 07:26:26 AM 36.9411 -94.3400 39° Northeast 456 525 23,800 787 Climbing Kansas City Center
Thu 07:27:27 AM 37.0419 -94.2417 38° Northeast 458 527 24,600 787 Climbing Kansas City Center
Thu 07:28:28 AM 37.1439 -94.1422 38° Northeast 463 533 25,400 942 Climbing Kansas City Center
Thu 07:29:28 AM 37.2500 -94.0367 38° Northeast 463 533 26,500 1,289 Climbing Kansas City Center
Thu 07:30:29 AM 37.3506 -93.9369 38° Northeast 460 529 28,000 1,525 Climbing Kansas City Center
Thu 07:31:30 AM 37.4478 -93.8411 38° Northeast 448 516 29,600 1,328 Climbing Kansas City Center
Thu 07:32:31 AM 37.5394 -93.7467 39° Northeast 432 497 30,700 689 Climbing Kansas City Center
Thu 07:33:32 AM 37.6356 -93.6508 38° Northeast 435 501 31,000 148 Climbing Kansas City Center
Thu 07:34:33 AM 37.7347 -93.5514 38° Northeast 446 513 31,000  Level Kansas City Center
Thu 07:35:34 AM 37.8556 -93.4300 38° Northeast 457 526 31,000  Level Kansas City Center
Thu 07:36:35 AM 37.9542 -93.3308 38° Northeast 454 522 31,000  Level Kansas City Center
Thu 07:37:36 AM 38.0539 -93.2281 39° Northeast 456 525 31,000  Level Kansas City Center
Thu 07:38:37 AM 38.1517 -93.1294 38° Northeast 452 520 31,000  Level Kansas City Center
Thu 07:39:37 AM 38.2506 -93.0286 39° Northeast 451 519 31,000  Level Kansas City Center
Thu 07:40:38 AM 38.3481 -92.9289 39° Northeast 448 516 31,000  Level Kansas City Center
Thu 07:41:39 AM 38.4469 -92.8264 39° Northeast 450 518 31,000  Level Kansas City Center
Thu 07:42:40 AM 38.5467 -92.7242 39° Northeast 455 524 31,000  Level Kansas City Center
Thu 07:43:41 AM 38.6475 -92.6189 39° Northeast 460 529 31,000  Level Kansas City Center
Thu 07:44:42 AM 38.7486 -92.5133 39° Northeast 464 534 31,000  Level Kansas City Center
Thu 07:45:43 AM 38.8508 -92.4081 39° Northeast 467 537 31,000  Level Kansas City Center
Thu 07:46:44 AM 38.9528 -92.2972 40° Northeast 472 543 31,000  Level Kansas City Center
Thu 07:47:45 AM 39.0569 -92.1911 38° Northeast 474 545 31,000  Level Kansas City Center
Thu 07:48:46 AM 39.1497 -92.0661 46° Northeast 482 555 31,000  Level Kansas City Center
Thu 07:49:47 AM 39.2325 -91.9228 53° Northeast 492 566 31,000  Level Kansas City Center
Thu 07:50:49 AM 39.3314 -91.8094 42° Northeast 493 567 31,000  Level Kansas City Center
Thu 07:51:50 AM 39.4292 -91.6969 42° Northeast 483 556 31,000  Level Kansas City Center
Thu 07:52:51 AM 39.5261 -91.5825 42° Northeast 479 551 31,000  Level Kansas City Center
Thu 07:53:52 AM 39.6403 -91.4478 42° Northeast 474 545 31,000  Level Kansas City Center
Thu 07:54:53 AM 39.7347 -91.3356 42° Northeast 469 540 31,000  Level Kansas City Center
Thu 07:55:54 AM 39.8275 -91.2239 43° Northeast 464 534 31,000  Level Kansas City Center
Thu 07:56:55 AM 39.9208 -91.1108 43° Northeast 462 532 31,000  Level Kansas City Center
Thu 07:57:57 AM 40.0172 -90.9975 42° Northeast 467 537 31,000  Level Kansas City Center
Thu 07:58:57 AM 40.1136 -90.8794 43° Northeast 467 537 31,000  Level Kansas City Center
Thu 07:59:58 AM 40.2064 -90.7583 45° Northeast 470 541 31,000  Level Kansas City Center
Thu 08:00:59 AM 40.2900 -90.6275 50° Northeast 469 540 31,000  Level Kansas City Center
Thu 08:02:00 AM 40.3756 -90.4986 49° Northeast 467 537 31,000  Level Kansas City Center
Thu 08:03:02 AM 40.4600 -90.3706 49° Northeast 465 535 31,000  Level Kansas City Center
Thu 08:04:03 AM 40.5536 -90.2253 50° Northeast 465 535 31,000 -246 Level Kansas City Center
Thu 08:05:04 AM 40.6378 -90.0964 49° Northeast 467 537 30,500 -934 Descending Kansas City Center
Thu 08:06:05 AM 40.7211 -89.9700 49° Northeast 463 533 29,100 -1,377 Descending Kansas City Center
Thu 08:07:06 AM 40.8028 -89.8442 49° Northeast 468 539 27,700 -1,397 Descending Kansas City Center
Thu 08:08:31 AM 40.9244 -89.6500 50° Northeast 465 535 25,700 -1,469 Descending Chicago Center
Thu 08:09:33 AM 41.0197 -89.4992 50° Northeast 472 543 24,100 -823 Descending Chicago Center
Thu 08:10:35 AM 41.1022 -89.3694 50° Northeast 462 532 24,000 -919 Descending Chicago Center
Thu 08:11:37 AM 41.1828 -89.2408 50° Northeast 457 526 22,200 -2,274 Descending Chicago Center
Thu 08:12:39 AM 41.2661 -89.1078 50° Northeast 449 517 19,300 -2,710 Descending Chicago Center
Thu 08:13:41 AM 41.3397 -88.9875 51° Northeast 425 489 16,600 -2,661 Descending Chicago Center
Thu 08:14:43 AM 41.4117 -88.8706 51° Northeast 411 473 13,800 -2,661 Descending Chicago Center
Thu 08:15:45 AM 41.4814 -88.7608 50° Northeast 391 450 11,100 -1,306 Descending Chicago Center
Thu 08:16:47 AM 41.5478 -88.6192 58° Northeast 380 437 11,100  Level Chicago Center
Thu 08:17:49 AM 41.5967 -88.4947 62° Northeast 378 435 11,100 -48 Level Chicago Center
Thu 08:18:51 AM 41.6581 -88.3811 54° Northeast 376 433 11,000 -290 Descending Chicago Center
Thu 08:19:53 AM 41.7167 -88.2814 52° Northeast 343 395 10,500 -968 Descending Chicago Center
Thu 08:20:55 AM 41.7672 -88.1953 52° Northeast 299 344 9,000 -1,452 Descending Chicago Center
Thu 08:21:57 AM 41.8139 -88.1158 52° Northeast 277 319 7,500 -968 Descending Chicago Center
Thu 08:22:59 AM 41.8542 -88.0422 54° Northeast 248 285 7,000 -218 Descending Chicago Center
Thu 08:23:47 AM 41.8833 -87.9833 56° Northeast 188 216 7,100 56 Climbing Chicago TRACON
Thu 08:24:47 AM 41.8833 -87.9167 90° East 194 223 7,100  Level Chicago TRACON
Thu 08:25:47 AM 41.8833 -87.8333 90° East 191 220 7,100 -750 Level Chicago TRACON
Thu 08:26:47 AM 41.8833 -87.7667 90° East 190 219 5,600 -1,450 Descending Chicago TRACON
Thu 08:27:47 AM 41.9000 -87.7167 66° East 184 212 4,200 -1,250 Descending Chicago TRACON
Thu 08:28:47 AM 41.9500 -87.7333 346° North 176 203 3,100 -1,200 Descending Chicago TRACON
Thu 08:29:42 AM 41.9667 -87.7833 294° West 157 181 1,900 -1,116 Descending Chicago TRACON
Thu 08:30:13 AM 41.9706 -87.8125 280° West 159 183 1,500 -581 Descending Chicago Center
Thu 08:31:15 AM 41.9689 -87.8642 268° West 153 176 1,000 -339 Descending Chicago Center
Thu 08:32:17 AM 41.9689 -87.9189 270° West 152 175 800 -194 Descending Chicago Center

Login

Don't have an account? Register now (free) for customized features, flight alerts, and more!